Ferryhill, United Kingdom
Current Conditions -  °F | °C
As of 9:50 PM on Sunday 23 Nov 2014 (Local Time) from EGNV Reporting Station
Clear Clear  
Wind Chill: -1°   Ceiling: Unl
Heat Index:   Visibility: 6mi
Dew Point:   Wind: 7mph
Humidity: 87%   Direction: 180°S
Pressure: 30.09"   Gusts: NA
Location:  54.68°N, 1.55°W
Report Text: EGNV 232150Z 18006KT CAVOK 02/M00 Q1019
Loading
Personal Weather Stations






























Interactive Weather Map New forecast layout! Learn more

10-Day Weather Forecast

Advertisements
Track Severe Weather on mobile